sensor_id;sensor_type;location;lat;lon;timestamp;temperature;humidity
53876;DHT22;39789;53.216;5.624;2022-12-05T00:01:23;5.30;99.90
53876;DHT22;39789;53.216;5.624;2022-12-05T00:03:51;5.40;99.90
53876;DHT22;39789;53.216;5.624;2022-12-05T00:06:23;5.30;99.90
53876;DHT22;39789;53.216;5.624;2022-12-05T00:08:49;5.30;99.90
53876;DHT22;39789;53.216;5.624;2022-12-05T00:11:17;5.30;99.90
53876;DHT22;39789;53.216;5.624;2022-12-05T00:13:43;5.30;99.90
53876;DHT22;39789;53.216;5.624;2022-12-05T00:16:15;5.30;99.90
53876;DHT22;39789;53.216;5.624;2022-12-05T00:18:41;5.30;99.90
53876;DHT22;39789;53.216;5.624;2022-12-05T00:21:12;5.30;99.90
53876;DHT22;39789;53.216;5.624;2022-12-05T00:23:37;5.30;99.90
53876;DHT22;39789;53.216;5.624;2022-12-05T00:26:04;5.30;99.90
53876;DHT22;39789;53.216;5.624;2022-12-05T00:28:31;5.30;99.90
53876;DHT22;39789;53.216;5.624;2022-12-05T00:34:02;5.30;99.90
53876;DHT22;39789;53.216;5.624;2022-12-05T00:36:31;5.30;99.90
53876;DHT22;39789;53.216;5.624;2022-12-05T00:38:58;5.30;99.90
53876;DHT22;39789;53.216;5.624;2022-12-05T00:41:26;5.30;99.90
53876;DHT22;39789;53.216;5.624;2022-12-05T00:43:53;5.30;99.90
53876;DHT22;39789;53.216;5.624;2022-12-05T00:46:21;5.30;99.90
53876;DHT22;39789;53.216;5.624;2022-12-05T00:48:47;5.30;99.90
53876;DHT22;39789;53.216;5.624;2022-12-05T00:51:20;5.30;99.90
53876;DHT22;39789;53.216;5.624;2022-12-05T00:53:46;5.30;99.90
53876;DHT22;39789;53.216;5.624;2022-12-05T00:56:15;5.30;99.90
53876;DHT22;39789;53.216;5.624;2022-12-05T00:58:41;5.30;99.90
53876;DHT22;39789;53.216;5.624;2022-12-05T01:01:12;5.40;99.90
53876;DHT22;39789;53.216;5.624;2022-12-05T01:03:38;5.40;99.90
53876;DHT22;39789;53.216;5.624;2022-12-05T01:06:05;5.50;99.90
53876;DHT22;39789;53.216;5.624;2022-12-05T01:08:31;5.50;99.90
53876;DHT22;39789;53.216;5.624;2022-12-05T01:10:58;5.50;99.90
53876;DHT22;39789;53.216;5.624;2022-12-05T01:13:25;5.50;99.90
53876;DHT22;39789;53.216;5.624;2022-12-05T01:15:51;5.50;99.90
53876;DHT22;39789;53.216;5.624;2022-12-05T01:18:17;5.50;99.90
53876;DHT22;39789;53.216;5.624;2022-12-05T01:20:44;5.50;99.90
53876;DHT22;39789;53.216;5.624;2022-12-05T01:23:09;5.50;99.90
53876;DHT22;39789;53.216;5.624;2022-12-05T01:25:39;5.50;99.90
53876;DHT22;39789;53.216;5.624;2022-12-05T01:28:05;5.50;99.90
53876;DHT22;39789;53.216;5.624;2022-12-05T01:30:31;5.50;99.90
53876;DHT22;39789;53.216;5.624;2022-12-05T01:32:57;5.50;99.90
53876;DHT22;39789;53.216;5.624;2022-12-05T01:35:23;5.60;99.90
53876;DHT22;39789;53.216;5.624;2022-12-05T01:37:48;5.60;99.90
53876;DHT22;39789;53.216;5.624;2022-12-05T01:40:15;5.50;99.90
53876;DHT22;39789;53.216;5.624;2022-12-05T01:42:41;5.50;99.90
53876;DHT22;39789;53.216;5.624;2022-12-05T01:45:14;5.50;99.90
53876;DHT22;39789;53.216;5.624;2022-12-05T01:47:40;5.50;99.90
53876;DHT22;39789;53.216;5.624;2022-12-05T01:50:07;5.50;99.90
53876;DHT22;39789;53.216;5.624;2022-12-05T01:52:33;5.50;99.90
53876;DHT22;39789;53.216;5.624;2022-12-05T01:55:05;5.50;99.90
53876;DHT22;39789;53.216;5.624;2022-12-05T01:57:31;5.50;99.90
53876;DHT22;39789;53.216;5.624;2022-12-05T02:00:03;5.50;99.90
53876;DHT22;39789;53.216;5.624;2022-12-05T02:02:30;5.50;99.90
53876;DHT22;39789;53.216;5.624;2022-12-05T02:05:21;5.50;99.90
53876;DHT22;39789;53.216;5.624;2022-12-05T02:07:48;5.50;99.90
53876;DHT22;39789;53.216;5.624;2022-12-05T02:10:13;5.50;99.90
53876;DHT22;39789;53.216;5.624;2022-12-05T02:12:40;5.50;99.90
53876;DHT22;39789;53.216;5.624;2022-12-05T02:15:22;5.50;99.90
53876;DHT22;39789;53.216;5.624;2022-12-05T02:34:17;5.50;99.90
53876;DHT22;39789;53.216;5.624;2022-12-05T02:36:59;5.60;99.90
53876;DHT22;39789;53.216;5.624;2022-12-05T02:39:46;5.60;99.90
53876;DHT22;39789;53.216;5.624;2022-12-05T02:42:49;5.60;99.90
53876;DHT22;39789;53.216;5.624;2022-12-05T02:45:17;5.60;99.90
53876;DHT22;39789;53.216;5.624;2022-12-05T02:47:54;5.70;99.90
53876;DHT22;39789;53.216;5.624;2022-12-05T02:50:24;5.80;99.90
53876;DHT22;39789;53.216;5.624;2022-12-05T02:52:53;5.80;99.90
53876;DHT22;39789;53.216;5.624;2022-12-05T02:55:22;5.80;99.90
53876;DHT22;39789;53.216;5.624;2022-12-05T02:57:54;5.80;99.90
53876;DHT22;39789;53.216;5.624;2022-12-05T03:00:22;5.80;99.90
53876;DHT22;39789;53.216;5.624;2022-12-05T03:02:51;5.80;99.90
53876;DHT22;39789;53.216;5.624;2022-12-05T03:05:37;5.80;99.90
53876;DHT22;39789;53.216;5.624;2022-12-05T03:08:06;5.90;99.90
53876;DHT22;39789;53.216;5.624;2022-12-05T03:10:34;5.90;99.90
53876;DHT22;39789;53.216;5.624;2022-12-05T03:13:06;5.80;99.90
53876;DHT22;39789;53.216;5.624;2022-12-05T03:15:40;5.80;99.90
53876;DHT22;39789;53.216;5.624;2022-12-05T03:21:54;5.90;99.90
53876;DHT22;39789;53.216;5.624;2022-12-05T03:23:55;5.90;99.90
53876;DHT22;39789;53.216;5.624;2022-12-05T03:26:35;5.90;99.90
53876;DHT22;39789;53.216;5.624;2022-12-05T03:29:42;5.90;99.90
53876;DHT22;39789;53.216;5.624;2022-12-05T03:35:16;5.80;99.90
53876;DHT22;39789;53.216;5.624;2022-12-05T03:37:49;5.80;99.90
53876;DHT22;39789;53.216;5.624;2022-12-05T03:40:43;5.80;99.90
53876;DHT22;39789;53.216;5.624;2022-12-05T03:44:00;5.90;99.90
53876;DHT22;39789;53.216;5.624;2022-12-05T03:46:15;5.80;99.90
53876;DHT22;39789;53.216;5.624;2022-12-05T03:48:52;5.90;99.90
53876;DHT22;39789;53.216;5.624;2022-12-05T03:51:22;5.90;99.90
53876;DHT22;39789;53.216;5.624;2022-12-05T03:56:33;5.90;99.90
53876;DHT22;39789;53.216;5.624;2022-12-05T03:59:51;5.90;99.90
53876;DHT22;39789;53.216;5.624;2022-12-05T04:01:59;6.00;99.90
53876;DHT22;39789;53.216;5.624;2022-12-05T04:04:30;5.90;99.90
53876;DHT22;39789;53.216;5.624;2022-12-05T04:07:00;5.90;99.90
53876;DHT22;39789;53.216;5.624;2022-12-05T04:09:34;5.90;99.90
53876;DHT22;39789;53.216;5.624;2022-12-05T04:12:03;5.90;99.90
53876;DHT22;39789;53.216;5.624;2022-12-05T04:14:38;6.00;99.90
53876;DHT22;39789;53.216;5.624;2022-12-05T04:17:08;5.90;99.90
53876;DHT22;39789;53.216;5.624;2022-12-05T04:19:52;5.90;99.90
53876;DHT22;39789;53.216;5.624;2022-12-05T04:22:38;5.90;99.90
53876;DHT22;39789;53.216;5.624;2022-12-05T04:25:07;5.90;99.90
53876;DHT22;39789;53.216;5.624;2022-12-05T04:30:54;5.90;99.90
53876;DHT22;39789;53.216;5.624;2022-12-05T04:33:32;5.90;99.90
53876;DHT22;39789;53.216;5.624;2022-12-05T04:41:50;5.90;99.90
53876;DHT22;39789;53.216;5.624;2022-12-05T04:44:22;5.90;99.90
53876;DHT22;39789;53.216;5.624;2022-12-05T04:46:51;5.90;99.90
53876;DHT22;39789;53.216;5.624;2022-12-05T04:49:23;5.90;99.90
53876;DHT22;39789;53.216;5.624;2022-12-05T04:51:53;5.90;99.90
53876;DHT22;39789;53.216;5.624;2022-12-05T04:54:30;5.90;99.90
53876;DHT22;39789;53.216;5.624;2022-12-05T04:57:04;5.90;99.90
53876;DHT22;39789;53.216;5.624;2022-12-05T04:59:31;5.90;99.90
53876;DHT22;39789;53.216;5.624;2022-12-05T05:02:02;5.90;99.90
53876;DHT22;39789;53.216;5.624;2022-12-05T05:04:50;5.90;99.90
53876;DHT22;39789;53.216;5.624;2022-12-05T05:07:18;5.90;99.90
53876;DHT22;39789;53.216;5.624;2022-12-05T05:09:44;6.00;99.90
53876;DHT22;39789;53.216;5.624;2022-12-05T05:12:10;6.00;99.90
53876;DHT22;39789;53.216;5.624;2022-12-05T05:14:35;6.00;99.90
53876;DHT22;39789;53.216;5.624;2022-12-05T05:17:02;6.00;99.90
53876;DHT22;39789;53.216;5.624;2022-12-05T05:19:27;5.90;99.90
53876;DHT22;39789;53.216;5.624;2022-12-05T05:21:53;6.00;99.90
53876;DHT22;39789;53.216;5.624;2022-12-05T05:24:19;6.00;99.90
53876;DHT22;39789;53.216;5.624;2022-12-05T05:26:46;5.90;99.90
53876;DHT22;39789;53.216;5.624;2022-12-05T05:29:13;6.00;99.90
53876;DHT22;39789;53.216;5.624;2022-12-05T05:31:40;5.90;99.90
53876;DHT22;39789;53.216;5.624;2022-12-05T05:34:06;5.90;99.90
53876;DHT22;39789;53.216;5.624;2022-12-05T05:36:33;5.90;99.90
53876;DHT22;39789;53.216;5.624;2022-12-05T05:39:00;5.90;99.90
53876;DHT22;39789;53.216;5.624;2022-12-05T05:41:32;5.90;99.90
53876;DHT22;39789;53.216;5.624;2022-12-05T05:43:58;5.90;99.90
53876;DHT22;39789;53.216;5.624;2022-12-05T05:46:26;5.90;99.90
53876;DHT22;39789;53.216;5.624;2022-12-05T05:48:53;5.90;99.90
53876;DHT22;39789;53.216;5.624;2022-12-05T05:51:21;5.90;99.90
53876;DHT22;39789;53.216;5.624;2022-12-05T05:53:47;5.90;99.90
53876;DHT22;39789;53.216;5.624;2022-12-05T05:56:16;6.00;99.90
53876;DHT22;39789;53.216;5.624;2022-12-05T05:58:43;6.00;99.90
53876;DHT22;39789;53.216;5.624;2022-12-05T06:01:14;6.00;99.90
53876;DHT22;39789;53.216;5.624;2022-12-05T06:03:40;6.00;99.90
53876;DHT22;39789;53.216;5.624;2022-12-05T06:06:09;6.00;99.90
53876;DHT22;39789;53.216;5.624;2022-12-05T06:08:37;6.00;99.90
53876;DHT22;39789;53.216;5.624;2022-12-05T06:11:11;6.00;99.90
53876;DHT22;39789;53.216;5.624;2022-12-05T06:13:37;6.00;99.90
53876;DHT22;39789;53.216;5.624;2022-12-05T06:23:09;6.10;99.90
53876;DHT22;39789;53.216;5.624;2022-12-05T06:25:34;6.10;99.90
53876;DHT22;39789;53.216;5.624;2022-12-05T06:28:00;6.10;99.90
53876;DHT22;39789;53.216;5.624;2022-12-05T06:30:25;6.10;99.90
53876;DHT22;39789;53.216;5.624;2022-12-05T06:32:51;6.10;99.90
53876;DHT22;39789;53.216;5.624;2022-12-05T06:35:16;6.10;99.90
53876;DHT22;39789;53.216;5.624;2022-12-05T06:37:43;6.10;99.90
53876;DHT22;39789;53.216;5.624;2022-12-05T06:40:10;6.10;99.90
53876;DHT22;39789;53.216;5.624;2022-12-05T06:42:36;6.00;99.90
53876;DHT22;39789;53.216;5.624;2022-12-05T06:45:02;6.00;99.90
53876;DHT22;39789;53.216;5.624;2022-12-05T06:47:27;6.00;99.90
53876;DHT22;39789;53.216;5.624;2022-12-05T06:49:53;6.00;99.90
53876;DHT22;39789;53.216;5.624;2022-12-05T06:52:19;5.90;99.90
53876;DHT22;39789;53.216;5.624;2022-12-05T06:54:44;5.90;99.90
53876;DHT22;39789;53.216;5.624;2022-12-05T06:57:11;5.90;99.90
53876;DHT22;39789;53.216;5.624;2022-12-05T06:59:37;5.90;99.90
53876;DHT22;39789;53.216;5.624;2022-12-05T07:02:02;5.80;99.90
53876;DHT22;39789;53.216;5.624;2022-12-05T07:04:31;5.80;99.90
53876;DHT22;39789;53.216;5.624;2022-12-05T07:06:57;5.80;99.90
53876;DHT22;39789;53.216;5.624;2022-12-05T07:09:24;5.80;99.90
53876;DHT22;39789;53.216;5.624;2022-12-05T07:12:13;5.80;99.90
53876;DHT22;39789;53.216;5.624;2022-12-05T07:14:39;5.80;99.90
53876;DHT22;39789;53.216;5.624;2022-12-05T07:17:05;5.80;99.90
53876;DHT22;39789;53.216;5.624;2022-12-05T07:19:31;5.80;99.90
53876;DHT22;39789;53.216;5.624;2022-12-05T07:21:56;5.80;99.90
53876;DHT22;39789;53.216;5.624;2022-12-05T07:24:22;5.80;99.90
53876;DHT22;39789;53.216;5.624;2022-12-05T07:26:47;5.80;99.90
53876;DHT22;39789;53.216;5.624;2022-12-05T07:29:13;5.80;99.90
53876;DHT22;39789;53.216;5.624;2022-12-05T07:31:38;5.80;99.90
53876;DHT22;39789;53.216;5.624;2022-12-05T07:34:04;5.80;99.90
53876;DHT22;39789;53.216;5.624;2022-12-05T07:36:29;5.80;99.90
53876;DHT22;39789;53.216;5.624;2022-12-05T07:38:57;5.80;99.90
53876;DHT22;39789;53.216;5.624;2022-12-05T07:41:28;5.80;99.90
53876;DHT22;39789;53.216;5.624;2022-12-05T07:43:56;5.80;99.90
53876;DHT22;39789;53.216;5.624;2022-12-05T07:46:23;5.80;99.90
53876;DHT22;39789;53.216;5.624;2022-12-05T07:48:49;5.80;99.90
53876;DHT22;39789;53.216;5.624;2022-12-05T07:51:15;5.80;99.90
53876;DHT22;39789;53.216;5.624;2022-12-05T07:53:42;5.70;99.90
53876;DHT22;39789;53.216;5.624;2022-12-05T07:56:10;5.80;99.90
53876;DHT22;39789;53.216;5.624;2022-12-05T07:58:36;5.70;99.90
53876;DHT22;39789;53.216;5.624;2022-12-05T08:01:11;5.70;99.90
53876;DHT22;39789;53.216;5.624;2022-12-05T08:03:36;5.70;99.90
53876;DHT22;39789;53.216;5.624;2022-12-05T08:06:08;5.70;99.90
53876;DHT22;39789;53.216;5.624;2022-12-05T08:08:34;5.70;99.90
53876;DHT22;39789;53.216;5.624;2022-12-05T08:11:11;5.70;99.90
53876;DHT22;39789;53.216;5.624;2022-12-05T08:13:37;5.70;99.90
53876;DHT22;39789;53.216;5.624;2022-12-05T08:16:04;5.70;99.90
53876;DHT22;39789;53.216;5.624;2022-12-05T08:18:30;5.70;99.90
53876;DHT22;39789;53.216;5.624;2022-12-05T08:21:04;5.70;99.90
53876;DHT22;39789;53.216;5.624;2022-12-05T08:23:31;5.70;99.90
53876;DHT22;39789;53.216;5.624;2022-12-05T08:29:30;5.80;99.90
53876;DHT22;39789;53.216;5.624;2022-12-05T08:31:58;5.90;99.90
53876;DHT22;39789;53.216;5.624;2022-12-05T08:34:24;5.90;99.90
53876;DHT22;39789;53.216;5.624;2022-12-05T08:36:51;5.90;99.90
53876;DHT22;39789;53.216;5.624;2022-12-05T08:39:18;5.90;99.90
53876;DHT22;39789;53.216;5.624;2022-12-05T08:41:46;5.90;99.90
53876;DHT22;39789;53.216;5.624;2022-12-05T08:44:14;5.90;99.90
53876;DHT22;39789;53.216;5.624;2022-12-05T08:46:46;5.90;99.90
53876;DHT22;39789;53.216;5.624;2022-12-05T08:49:13;5.90;99.90
53876;DHT22;39789;53.216;5.624;2022-12-05T08:51:40;5.90;99.90
53876;DHT22;39789;53.216;5.624;2022-12-05T08:54:10;5.90;99.90
53876;DHT22;39789;53.216;5.624;2022-12-05T08:56:36;5.90;99.90
53876;DHT22;39789;53.216;5.624;2022-12-05T08:59:03;5.90;99.90
53876;DHT22;39789;53.216;5.624;2022-12-05T09:01:29;5.90;99.90
53876;DHT22;39789;53.216;5.624;2022-12-05T09:03:57;5.90;99.90
53876;DHT22;39789;53.216;5.624;2022-12-05T09:06:25;6.00;99.90
53876;DHT22;39789;53.216;5.624;2022-12-05T09:08:56;6.00;99.90
53876;DHT22;39789;53.216;5.624;2022-12-05T09:11:24;6.00;99.90
53876;DHT22;39789;53.216;5.624;2022-12-05T09:13:52;6.00;99.90
53876;DHT22;39789;53.216;5.624;2022-12-05T09:16:20;6.10;99.90
53876;DHT22;39789;53.216;5.624;2022-12-05T09:18:47;6.10;99.90
53876;DHT22;39789;53.216;5.624;2022-12-05T09:21:31;6.10;99.90
53876;DHT22;39789;53.216;5.624;2022-12-05T09:23:58;6.10;99.90
53876;DHT22;39789;53.216;5.624;2022-12-05T09:26:24;6.10;99.90
53876;DHT22;39789;53.216;5.624;2022-12-05T09:28:51;6.20;99.90
53876;DHT22;39789;53.216;5.624;2022-12-05T09:31:22;6.20;99.90
53876;DHT22;39789;53.216;5.624;2022-12-05T09:33:49;6.20;99.90
53876;DHT22;39789;53.216;5.624;2022-12-05T09:36:26;6.20;99.90
53876;DHT22;39789;53.216;5.624;2022-12-05T09:38:53;6.30;99.90
53876;DHT22;39789;53.216;5.624;2022-12-05T09:47:03;6.30;99.90
53876;DHT22;39789;53.216;5.624;2022-12-05T09:49:32;6.30;99.90
53876;DHT22;39789;53.216;5.624;2022-12-05T09:51:59;6.30;99.90
53876;DHT22;39789;53.216;5.624;2022-12-05T09:54:26;6.40;99.90
53876;DHT22;39789;53.216;5.624;2022-12-05T09:56:52;6.40;99.90
53876;DHT22;39789;53.216;5.624;2022-12-05T09:59:19;6.40;99.90
53876;DHT22;39789;53.216;5.624;2022-12-05T10:02:00;6.40;99.90
53876;DHT22;39789;53.216;5.624;2022-12-05T10:07:12;6.40;99.90
53876;DHT22;39789;53.216;5.624;2022-12-05T10:18:12;6.50;99.90
53876;DHT22;39789;53.216;5.624;2022-12-05T10:25:41;6.50;99.90
53876;DHT22;39789;53.216;5.624;2022-12-05T10:28:14;6.40;99.90
53876;DHT22;39789;53.216;5.624;2022-12-05T10:30:44;6.50;99.90
53876;DHT22;39789;53.216;5.624;2022-12-05T10:33:21;6.50;99.90
53876;DHT22;39789;53.216;5.624;2022-12-05T10:35:48;6.50;99.90
53876;DHT22;39789;53.216;5.624;2022-12-05T10:38:30;6.50;99.90
53876;DHT22;39789;53.216;5.624;2022-12-05T10:40:59;6.50;99.90
53876;DHT22;39789;53.216;5.624;2022-12-05T10:43:30;6.50;99.90
53876;DHT22;39789;53.216;5.624;2022-12-05T10:45:57;6.50;99.90
53876;DHT22;39789;53.216;5.624;2022-12-05T10:48:24;6.50;99.90
53876;DHT22;39789;53.216;5.624;2022-12-05T10:50:55;6.50;99.90
53876;DHT22;39789;53.216;5.624;2022-12-05T10:53:41;6.50;99.90
53876;DHT22;39789;53.216;5.624;2022-12-05T10:59:01;6.50;99.90
53876;DHT22;39789;53.216;5.624;2022-12-05T11:01:27;6.50;99.90
53876;DHT22;39789;53.216;5.624;2022-12-05T11:03:58;6.50;99.90
53876;DHT22;39789;53.216;5.624;2022-12-05T11:06:29;6.50;99.90
53876;DHT22;39789;53.216;5.624;2022-12-05T11:09:13;6.50;99.90
53876;DHT22;39789;53.216;5.624;2022-12-05T11:11:40;6.50;99.90
53876;DHT22;39789;53.216;5.624;2022-12-05T11:14:21;6.60;99.90
53876;DHT22;39789;53.216;5.624;2022-12-05T11:16:53;6.60;99.90
53876;DHT22;39789;53.216;5.624;2022-12-05T11:21:57;6.60;99.90
53876;DHT22;39789;53.216;5.624;2022-12-05T11:24:34;6.60;99.90
53876;DHT22;39789;53.216;5.624;2022-12-05T11:29:43;6.70;99.90
53876;DHT22;39789;53.216;5.624;2022-12-05T11:32:24;6.70;99.90
53876;DHT22;39789;53.216;5.624;2022-12-05T11:35:06;6.70;99.90
53876;DHT22;39789;53.216;5.624;2022-12-05T11:37:54;6.70;99.90
53876;DHT22;39789;53.216;5.624;2022-12-05T11:40:41;6.80;99.90
53876;DHT22;39789;53.216;5.624;2022-12-05T11:43:23;6.70;99.90
53876;DHT22;39789;53.216;5.624;2022-12-05T11:46:05;6.80;99.90
53876;DHT22;39789;53.216;5.624;2022-12-05T11:51:34;6.80;99.90
53876;DHT22;39789;53.216;5.624;2022-12-05T11:54:04;6.80;99.90
53876;DHT22;39789;53.216;5.624;2022-12-05T11:56:41;6.90;99.90
53876;DHT22;39789;53.216;5.624;2022-12-05T12:05:17;6.90;99.90
53876;DHT22;39789;53.216;5.624;2022-12-05T12:07:53;6.80;99.90
53876;DHT22;39789;53.216;5.624;2022-12-05T12:10:50;6.80;99.90
53876;DHT22;39789;53.216;5.624;2022-12-05T12:16:33;6.80;99.90
53876;DHT22;39789;53.216;5.624;2022-12-05T12:29:00;6.70;99.90
53876;DHT22;39789;53.216;5.624;2022-12-05T12:31:26;6.70;99.90
53876;DHT22;39789;53.216;5.624;2022-12-05T12:39:44;6.70;99.90
53876;DHT22;39789;53.216;5.624;2022-12-05T12:42:42;6.70;99.90
53876;DHT22;39789;53.216;5.624;2022-12-05T12:45:23;6.70;99.90
53876;DHT22;39789;53.216;5.624;2022-12-05T12:50:50;6.60;99.90
53876;DHT22;39789;53.216;5.624;2022-12-05T12:58:50;6.60;99.90
53876;DHT22;39789;53.216;5.624;2022-12-05T13:01:29;6.60;99.90
53876;DHT22;39789;53.216;5.624;2022-12-05T13:04:06;6.60;99.90
53876;DHT22;39789;53.216;5.624;2022-12-05T13:06:49;6.60;99.90
53876;DHT22;39789;53.216;5.624;2022-12-05T13:12:10;6.40;99.90
53876;DHT22;39789;53.216;5.624;2022-12-05T13:14:48;6.30;99.90
53876;DHT22;39789;53.216;5.624;2022-12-05T13:17:18;6.30;99.90
53876;DHT22;39789;53.216;5.624;2022-12-05T13:19:48;6.20;99.90
53876;DHT22;39789;53.216;5.624;2022-12-05T13:22:16;6.20;99.90
53876;DHT22;39789;53.216;5.624;2022-12-05T13:24:43;6.10;99.90
53876;DHT22;39789;53.216;5.624;2022-12-05T13:27:15;6.10;99.90
53876;DHT22;39789;53.216;5.624;2022-12-05T13:29:50;6.10;99.90
53876;DHT22;39789;53.216;5.624;2022-12-05T13:32:32;6.10;99.90
53876;DHT22;39789;53.216;5.624;2022-12-05T13:35:08;6.10;99.90
53876;DHT22;39789;53.216;5.624;2022-12-05T13:37:35;6.10;99.90
53876;DHT22;39789;53.216;5.624;2022-12-05T13:43:16;6.10;99.90
53876;DHT22;39789;53.216;5.624;2022-12-05T13:45:56;6.00;99.90
53876;DHT22;39789;53.216;5.624;2022-12-05T13:48:23;6.00;99.90
53876;DHT22;39789;53.216;5.624;2022-12-05T13:50:58;6.00;99.90
53876;DHT22;39789;53.216;5.624;2022-12-05T13:53:43;6.00;99.90
53876;DHT22;39789;53.216;5.624;2022-12-05T13:58:54;6.00;99.90
53876;DHT22;39789;53.216;5.624;2022-12-05T14:17:27;6.00;99.90
53876;DHT22;39789;53.216;5.624;2022-12-05T14:22:58;6.00;99.90
53876;DHT22;39789;53.216;5.624;2022-12-05T14:26:14;6.00;99.90
53876;DHT22;39789;53.216;5.624;2022-12-05T14:28:58;5.90;99.90
53876;DHT22;39789;53.216;5.624;2022-12-05T14:34:21;6.00;99.90
53876;DHT22;39789;53.216;5.624;2022-12-05T14:39:37;5.90;99.90
53876;DHT22;39789;53.216;5.624;2022-12-05T14:42:20;5.90;99.90
53876;DHT22;39789;53.216;5.624;2022-12-05T14:44:48;5.90;99.90
53876;DHT22;39789;53.216;5.624;2022-12-05T14:47:19;5.90;99.90
53876;DHT22;39789;53.216;5.624;2022-12-05T14:50:00;6.00;99.90
53876;DHT22;39789;53.216;5.624;2022-12-05T14:52:44;6.00;99.90
53876;DHT22;39789;53.216;5.624;2022-12-05T14:55:30;5.90;99.90
53876;DHT22;39789;53.216;5.624;2022-12-05T14:57:55;5.90;99.90
53876;DHT22;39789;53.216;5.624;2022-12-05T15:00:22;5.90;99.90
53876;DHT22;39789;53.216;5.624;2022-12-05T15:02:49;5.90;99.90
53876;DHT22;39789;53.216;5.624;2022-12-05T15:07:42;5.90;99.90
53876;DHT22;39789;53.216;5.624;2022-12-05T15:10:32;5.90;99.90
53876;DHT22;39789;53.216;5.624;2022-12-05T15:13:20;5.90;99.90
53876;DHT22;39789;53.216;5.624;2022-12-05T15:16:06;5.90;99.90
53876;DHT22;39789;53.216;5.624;2022-12-05T15:18:45;5.90;99.90
53876;DHT22;39789;53.216;5.624;2022-12-05T15:21:22;5.90;99.90
53876;DHT22;39789;53.216;5.624;2022-12-05T15:23:57;5.90;99.90
53876;DHT22;39789;53.216;5.624;2022-12-05T15:26:27;5.90;99.90
53876;DHT22;39789;53.216;5.624;2022-12-05T15:31:31;5.90;99.90
53876;DHT22;39789;53.216;5.624;2022-12-05T15:34:02;5.90;99.90
53876;DHT22;39789;53.216;5.624;2022-12-05T15:36:35;5.90;99.90
53876;DHT22;39789;53.216;5.624;2022-12-05T15:39:20;5.90;99.90
53876;DHT22;39789;53.216;5.624;2022-12-05T15:41:53;5.90;99.90
53876;DHT22;39789;53.216;5.624;2022-12-05T15:44:20;5.90;99.90
53876;DHT22;39789;53.216;5.624;2022-12-05T15:46:54;5.90;99.90
53876;DHT22;39789;53.216;5.624;2022-12-05T15:49:24;5.90;99.90
53876;DHT22;39789;53.216;5.624;2022-12-05T15:52:36;5.90;99.90
53876;DHT22;39789;53.216;5.624;2022-12-05T15:54:42;5.90;99.90
53876;DHT22;39789;53.216;5.624;2022-12-05T15:57:26;5.90;99.90
53876;DHT22;39789;53.216;5.624;2022-12-05T16:00:02;5.90;99.90
53876;DHT22;39789;53.216;5.624;2022-12-05T16:05:01;5.80;99.90
53876;DHT22;39789;53.216;5.624;2022-12-05T16:07:28;5.80;99.90
53876;DHT22;39789;53.216;5.624;2022-12-05T16:09:57;5.80;99.90
53876;DHT22;39789;53.216;5.624;2022-12-05T16:12:32;5.80;99.90
53876;DHT22;39789;53.216;5.624;2022-12-05T16:15:08;5.80;99.90
53876;DHT22;39789;53.216;5.624;2022-12-05T16:17:42;5.80;99.90
53876;DHT22;39789;53.216;5.624;2022-12-05T16:20:24;5.80;99.90
53876;DHT22;39789;53.216;5.624;2022-12-05T16:22:54;5.80;99.90
53876;DHT22;39789;53.216;5.624;2022-12-05T16:25:27;5.80;99.90
53876;DHT22;39789;53.216;5.624;2022-12-05T16:28:00;5.90;99.90
53876;DHT22;39789;53.216;5.624;2022-12-05T16:30:29;5.80;99.90
53876;DHT22;39789;53.216;5.624;2022-12-05T16:33:21;5.80;99.90
53876;DHT22;39789;53.216;5.624;2022-12-05T16:35:47;5.90;99.90
53876;DHT22;39789;53.216;5.624;2022-12-05T16:40:54;5.80;99.90
53876;DHT22;39789;53.216;5.624;2022-12-05T16:48:35;5.80;99.90
53876;DHT22;39789;53.216;5.624;2022-12-05T16:53:44;5.80;99.90
53876;DHT22;39789;53.216;5.624;2022-12-05T16:56:14;5.80;99.90
53876;DHT22;39789;53.216;5.624;2022-12-05T16:58:40;5.80;99.90
53876;DHT22;39789;53.216;5.624;2022-12-05T17:01:06;5.80;99.90
53876;DHT22;39789;53.216;5.624;2022-12-05T17:03:38;5.80;99.90
53876;DHT22;39789;53.216;5.624;2022-12-05T17:06:04;5.80;99.90
53876;DHT22;39789;53.216;5.624;2022-12-05T17:08:30;5.80;99.90
53876;DHT22;39789;53.216;5.624;2022-12-05T17:10:56;5.80;99.90
53876;DHT22;39789;53.216;5.624;2022-12-05T17:13:22;5.60;99.90
53876;DHT22;39789;53.216;5.624;2022-12-05T17:15:48;5.80;99.90
53876;DHT22;39789;53.216;5.624;2022-12-05T17:18:16;5.70;99.90
53876;DHT22;39789;53.216;5.624;2022-12-05T17:20:50;5.70;99.90
53876;DHT22;39789;53.216;5.624;2022-12-05T17:23:17;5.80;99.90
53876;DHT22;39789;53.216;5.624;2022-12-05T17:25:51;5.70;99.90
53876;DHT22;39789;53.216;5.624;2022-12-05T17:31:48;5.80;99.90
53876;DHT22;39789;53.216;5.624;2022-12-05T17:34:15;5.80;99.90
53876;DHT22;39789;53.216;5.624;2022-12-05T17:36:40;5.80;99.90
53876;DHT22;39789;53.216;5.624;2022-12-05T17:39:06;5.80;99.90
53876;DHT22;39789;53.216;5.624;2022-12-05T17:41:33;7.10;99.90
53876;DHT22;39789;53.216;5.624;2022-12-05T17:43:58;5.70;99.90
53876;DHT22;39789;53.216;5.624;2022-12-05T17:46:24;5.70;99.90
53876;DHT22;39789;53.216;5.624;2022-12-05T17:48:51;5.70;99.90
53876;DHT22;39789;53.216;5.624;2022-12-05T17:51:17;5.80;99.90
53876;DHT22;39789;53.216;5.624;2022-12-05T17:53:43;5.80;99.90
53876;DHT22;39789;53.216;5.624;2022-12-05T17:56:10;5.80;99.90
53876;DHT22;39789;53.216;5.624;2022-12-05T17:58:36;5.80;99.90
53876;DHT22;39789;53.216;5.624;2022-12-05T18:01:01;5.80;99.90
53876;DHT22;39789;53.216;5.624;2022-12-05T18:03:28;5.90;99.90
53876;DHT22;39789;53.216;5.624;2022-12-05T18:05:54;5.90;99.90
53876;DHT22;39789;53.216;5.624;2022-12-05T18:12:00;5.90;99.90
53876;DHT22;39789;53.216;5.624;2022-12-05T18:14:26;5.90;99.90
53876;DHT22;39789;53.216;5.624;2022-12-05T18:16:53;5.90;99.90
53876;DHT22;39789;53.216;5.624;2022-12-05T18:26:24;5.90;99.90
53876;DHT22;39789;53.216;5.624;2022-12-05T18:29:15;5.90;99.90
53876;DHT22;39789;53.216;5.624;2022-12-05T18:31:40;6.00;99.90
53876;DHT22;39789;53.216;5.624;2022-12-05T18:34:07;6.00;99.90
53876;DHT22;39789;53.216;5.624;2022-12-05T18:36:32;6.00;99.90
53876;DHT22;39789;53.216;5.624;2022-12-05T18:38:59;6.00;99.90
53876;DHT22;39789;53.216;5.624;2022-12-05T18:41:25;6.00;99.90
53876;DHT22;39789;53.216;5.624;2022-12-05T18:43:57;6.00;99.90
53876;DHT22;39789;53.216;5.624;2022-12-05T18:46:40;6.00;99.90
53876;DHT22;39789;53.216;5.624;2022-12-05T18:49:06;6.00;99.90
53876;DHT22;39789;53.216;5.624;2022-12-05T18:56:42;6.00;99.90
53876;DHT22;39789;53.216;5.624;2022-12-05T19:06:57;6.00;99.90
53876;DHT22;39789;53.216;5.624;2022-12-05T19:09:28;6.80;99.90
53876;DHT22;39789;53.216;5.624;2022-12-05T19:12:26;6.00;99.90
53876;DHT22;39789;53.216;5.624;2022-12-05T19:15:09;5.40;99.90
53876;DHT22;39789;53.216;5.624;2022-12-05T19:22:46;6.10;99.90
53876;DHT22;39789;53.216;5.624;2022-12-05T19:25:17;6.50;99.90
53876;DHT22;39789;53.216;5.624;2022-12-05T19:28:14;6.80;99.90